createdAt,value
2022-11-16T00:01:39.930Z,58.22
2022-11-16T00:04:06.547Z,56.67
2022-11-16T00:06:33.071Z,53.97
2022-11-16T00:09:20.914Z,54.42
2022-11-16T00:11:50.246Z,53.95
2022-11-16T00:14:17.600Z,58.83
2022-11-16T00:16:44.222Z,57.90
2022-11-16T00:19:11.536Z,58.80
2022-11-16T00:21:38.073Z,57.40
2022-11-16T00:24:05.408Z,57.35
2022-11-16T00:26:31.820Z,57.28
2022-11-16T00:28:58.553Z,57.13
2022-11-16T00:31:25.192Z,54.00
2022-11-16T00:33:52.011Z,55.78
2022-11-16T00:36:18.685Z,50.75
2022-11-16T00:38:45.087Z,52.15
2022-11-16T00:41:11.591Z,52.15
2022-11-16T00:43:38.127Z,51.38
2022-11-16T00:46:05.260Z,53.60
2022-11-16T00:48:32.070Z,53.60
2022-11-16T00:50:58.783Z,52.78
2022-11-16T00:53:25.198Z,52.42
2022-11-16T00:55:51.868Z,56.88
2022-11-16T00:58:18.259Z,54.53
2022-11-16T01:00:44.729Z,52.15
2022-11-16T01:03:11.215Z,54.22
2022-11-16T01:05:37.697Z,55.08
2022-11-16T01:08:04.738Z,54.10
2022-11-16T01:10:31.283Z,52.38
2022-11-16T01:12:57.915Z,48.42
2022-11-16T01:15:26.779Z,49.03
2022-11-16T01:17:55.051Z,49.80
2022-11-16T01:20:24.491Z,48.33
2022-11-16T01:22:51.633Z,48.90
2022-11-16T01:25:18.189Z,48.38
2022-11-16T01:27:44.716Z,49.35
2022-11-16T01:30:14.054Z,48.40
2022-11-16T01:32:40.459Z,51.03
2022-11-16T01:35:07.466Z,49.70
2022-11-16T01:37:33.903Z,50.63
2022-11-16T01:40:00.371Z,51.15
2022-11-16T01:42:28.864Z,51.63
2022-11-16T01:44:57.797Z,52.90
2022-11-16T01:47:24.234Z,50.42
2022-11-16T01:50:01.048Z,49.90
2022-11-16T01:52:31.571Z,51.80
2022-11-16T01:54:58.296Z,49.67
2022-11-16T01:57:32.663Z,52.45
2022-11-16T02:00:00.917Z,51.58
2022-11-16T02:02:27.488Z,49.40
2022-11-16T02:04:55.436Z,51.53
2022-11-16T02:07:31.865Z,46.35
2022-11-16T02:10:08.680Z,48.80
2022-11-16T02:12:53.688Z,49.67
2022-11-16T02:15:43.382Z,49.72
2022-11-16T02:18:36.148Z,48.35
2022-11-16T02:21:33.909Z,49.42
2022-11-16T02:24:35.442Z,51.45
2022-11-16T02:27:18.118Z,50.85
2022-11-16T02:29:54.572Z,47.97
2022-11-16T02:32:45.112Z,49.95
2022-11-16T02:35:23.810Z,50.08
2022-11-16T02:37:59.049Z,52.25
2022-11-16T02:40:30.688Z,49.60
2022-11-16T02:45:33.842Z,49.42
2022-11-16T02:48:07.406Z,49.53
2022-11-16T02:50:35.565Z,48.75
2022-11-16T02:53:02.862Z,47.42
2022-11-16T02:55:32.559Z,47.50
2022-11-16T02:58:01.899Z,46.08
2022-11-16T03:00:35.879Z,47.90
2022-11-16T03:03:08.827Z,49.50
2022-11-16T03:05:41.707Z,48.47
2022-11-16T03:08:39.191Z,47.75
2022-11-16T03:11:27.021Z,49.22
2022-11-16T03:14:03.643Z,50.05
2022-11-16T03:16:34.864Z,50.08
2022-11-16T03:19:05.238Z,50.22
2022-11-16T03:22:07.896Z,51.22
2022-11-16T03:24:34.450Z,49.40
2022-11-16T03:27:19.777Z,51.35
2022-11-16T03:30:06.151Z,50.05
2022-11-16T03:32:51.173Z,50.55
2022-11-16T03:35:30.496Z,48.92
2022-11-16T03:37:59.794Z,49.70
2022-11-16T03:40:30.317Z,48.67
2022-11-16T03:42:59.396Z,51.00
2022-11-16T03:45:26.551Z,50.60
2022-11-16T03:47:52.953Z,49.58
2022-11-16T03:50:19.467Z,51.80
2022-11-16T03:52:45.946Z,54.45
2022-11-16T03:55:12.343Z,52.10
2022-11-16T03:57:38.788Z,50.92
2022-11-16T04:00:06.887Z,53.78
2022-11-16T04:02:33.302Z,54.35
2022-11-16T04:05:18.227Z,56.30
2022-11-16T04:08:03.236Z,56.72
2022-11-16T04:10:48.385Z,59.83
2022-11-16T04:13:34.519Z,57.00
2022-11-16T04:16:19.519Z,61.85
2022-11-16T04:19:04.656Z,59.67
2022-11-16T04:21:59.393Z,61.97
2022-11-16T04:24:30.040Z,60.85
2022-11-16T04:27:18.897Z,63.87
2022-11-16T04:29:45.409Z,63.40
2022-11-16T04:32:30.769Z,65.57
2022-11-16T04:35:16.162Z,65.13
2022-11-16T04:37:48.635Z,67.63
2022-11-16T04:40:27.904Z,67.65
2022-11-16T04:42:56.346Z,70.68
2022-11-16T04:45:42.406Z,69.85
2022-11-16T04:48:09.821Z,67.78
2022-11-16T04:50:36.883Z,70.60
2022-11-16T04:53:04.380Z,68.90
2022-11-16T04:55:31.103Z,68.43
2022-11-16T04:57:57.476Z,67.75
2022-11-16T05:00:24.029Z,69.28
2022-11-16T05:02:50.606Z,69.85
2022-11-16T05:05:17.453Z,65.72
2022-11-16T05:07:44.120Z,69.85
2022-11-16T05:10:11.505Z,68.13
2022-11-16T05:12:38.310Z,71.40
2022-11-16T05:15:06.195Z,70.60
2022-11-16T05:17:33.211Z,69.13
2022-11-16T05:20:18.289Z,70.03
2022-11-16T05:22:44.707Z,66.53
2022-11-16T05:25:12.340Z,70.80
2022-11-16T05:27:38.775Z,71.57
2022-11-16T05:30:06.586Z,67.45
2022-11-16T05:32:33.030Z,69.97
2022-11-16T05:34:59.405Z,67.45
2022-11-16T05:37:26.819Z,69.78
2022-11-16T05:39:54.801Z,68.65
2022-11-16T05:42:21.233Z,73.18
2022-11-16T05:44:47.766Z,73.35
2022-11-16T05:47:14.298Z,72.82
2022-11-16T05:49:40.707Z,72.22
2022-11-16T05:52:07.196Z,73.75
2022-11-16T05:54:33.598Z,73.10
2022-11-16T05:57:00.037Z,72.95
2022-11-16T05:59:27.732Z,72.72
2022-11-16T06:01:54.129Z,72.93
2022-11-16T06:04:24.361Z,72.47
2022-11-16T06:06:51.275Z,53.33
2022-11-16T06:09:17.680Z,74.28
2022-11-16T06:11:44.175Z,75.40
2022-11-16T06:14:10.623Z,75.97
2022-11-16T06:16:37.087Z,78.60
2022-11-16T06:19:03.551Z,72.95
2022-11-16T06:21:30.119Z,75.65
2022-11-16T06:23:56.539Z,70.25
2022-11-16T06:26:22.964Z,71.82
2022-11-16T06:28:49.477Z,73.32
2022-11-16T06:31:16.020Z,74.13
2022-11-16T06:33:42.512Z,73.43
2022-11-16T06:36:09.066Z,72.57
2022-11-16T06:38:35.687Z,75.80
2022-11-16T06:41:03.087Z,79.35
2022-11-16T06:43:29.578Z,72.22
2022-11-16T06:46:00.328Z,71.57
2022-11-16T06:48:26.860Z,71.27
2022-11-16T06:50:53.875Z,68.10
2022-11-16T06:53:24.595Z,69.78
2022-11-16T06:55:54.138Z,69.90
2022-11-16T06:58:20.542Z,71.05
2022-11-16T07:00:47.022Z,69.32
2022-11-16T07:03:13.460Z,69.30
2022-11-16T07:05:41.902Z,69.75
2022-11-16T07:08:08.361Z,69.22
2022-11-16T07:10:34.829Z,68.85
2022-11-16T07:13:03.380Z,68.10
2022-11-16T07:15:30.343Z,70.78
2022-11-16T07:17:56.770Z,69.03
2022-11-16T07:20:23.244Z,70.47
2022-11-16T07:22:49.702Z,72.22
2022-11-16T07:25:16.216Z,70.95
2022-11-16T07:27:42.732Z,72.20
2022-11-16T07:30:09.615Z,74.15
2022-11-16T07:32:36.005Z,70.57
2022-11-16T07:35:02.500Z,70.38
2022-11-16T07:37:28.961Z,68.95
2022-11-16T07:39:55.416Z,69.82
2022-11-16T07:42:21.806Z,70.75
2022-11-16T07:44:48.274Z,71.45
2022-11-16T07:47:14.744Z,71.93
2022-11-16T07:49:41.214Z,72.03
2022-11-16T07:52:10.766Z,72.80
2022-11-16T07:54:37.372Z,66.13
2022-11-16T07:57:03.843Z,72.60
2022-11-16T07:59:30.268Z,72.03
2022-11-16T08:01:59.198Z,75.47
2022-11-16T08:04:25.845Z,75.07
2022-11-16T08:06:52.376Z,74.18
2022-11-16T08:09:18.907Z,77.43
2022-11-16T08:11:47.072Z,75.50
2022-11-16T08:14:13.910Z,74.43
2022-11-16T08:16:40.349Z,74.50
2022-11-16T08:19:06.884Z,72.80
2022-11-16T08:21:33.294Z,72.03
2022-11-16T08:23:59.743Z,73.82
2022-11-16T08:26:27.527Z,73.43
2022-11-16T08:28:55.607Z,76.13
2022-11-16T08:31:24.876Z,74.43
2022-11-16T08:33:54.460Z,75.72
2022-11-16T08:36:22.556Z,72.80
2022-11-16T08:38:50.642Z,74.35
2022-11-16T08:41:18.331Z,72.38
2022-11-16T08:43:47.063Z,67.13
2022-11-16T08:46:14.365Z,70.00
2022-11-16T08:48:41.598Z,71.47
2022-11-16T08:51:19.431Z,68.57
2022-11-16T08:53:48.202Z,69.38
2022-11-16T08:56:16.443Z,65.68
2022-11-16T08:58:47.267Z,67.13
2022-11-16T09:01:19.974Z,65.32
2022-11-16T09:03:46.810Z,63.25
2022-11-16T09:06:13.673Z,62.03
2022-11-16T09:08:41.958Z,60.35
2022-11-16T09:11:11.571Z,61.45
2022-11-16T09:13:38.087Z,63.58
2022-11-16T09:16:05.142Z,61.70
2022-11-16T09:18:32.110Z,61.33
2022-11-16T09:20:59.292Z,56.60
2022-11-16T09:23:26.028Z,61.38
2022-11-16T09:25:54.170Z,59.53
2022-11-16T09:28:22.568Z,54.80
2022-11-16T09:30:51.108Z,54.78
2022-11-16T09:33:17.799Z,52.40
2022-11-16T09:35:44.260Z,52.53
2022-11-16T09:38:13.638Z,51.95
2022-11-16T09:40:46.064Z,47.63
2022-11-16T09:43:31.092Z,49.35
2022-11-16T09:46:17.722Z,45.75
2022-11-16T09:48:44.850Z,45.15
2022-11-16T09:51:15.634Z,43.08
2022-11-16T09:53:48.048Z,32.42
2022-11-16T09:56:23.529Z,42.83
2022-11-16T09:59:19.469Z,44.53
2022-11-16T10:01:58.705Z,36.97
2022-11-16T10:04:47.250Z,32.40
2022-11-16T10:07:22.491Z,32.30
2022-11-16T10:09:49.340Z,29.58
2022-11-16T10:12:34.884Z,30.63
2022-11-16T10:15:36.509Z,28.73
2022-11-16T10:18:28.489Z,30.10
2022-11-16T10:21:27.617Z,25.90
2022-11-16T10:24:16.940Z,28.88
2022-11-16T10:27:22.275Z,30.65
2022-11-16T10:30:06.999Z,31.08
2022-11-16T10:32:53.647Z,32.13
2022-11-16T10:35:30.833Z,30.52
2022-11-16T10:37:59.795Z,32.50
2022-11-16T10:40:29.369Z,32.28
2022-11-16T10:43:20.556Z,31.55
2022-11-16T10:46:00.391Z,25.58
2022-11-16T10:48:37.379Z,30.95
2022-11-16T10:51:05.065Z,32.17
2022-11-16T10:53:35.451Z,31.08
2022-11-16T10:56:14.207Z,31.03
2022-11-16T10:58:49.811Z,31.30
2022-11-16T11:01:28.891Z,29.90
2022-11-16T11:03:55.361Z,31.15
2022-11-16T11:06:26.479Z,29.35
2022-11-16T11:08:52.956Z,27.48
2022-11-16T11:11:40.735Z,29.23
2022-11-16T11:14:15.674Z,29.63
2022-11-16T11:16:42.265Z,29.13
2022-11-16T11:19:23.967Z,28.50
2022-11-16T11:24:43.319Z,26.00
2022-11-16T11:27:05.417Z,27.38
2022-11-16T11:29:35.813Z,28.23
2022-11-16T11:32:07.946Z,28.17
2022-11-16T11:34:41.732Z,28.08
2022-11-16T11:37:15.948Z,26.02
2022-11-16T11:39:42.791Z,25.42
2022-11-16T11:42:12.260Z,26.38
2022-11-16T11:44:51.865Z,25.63
2022-11-16T11:47:58.198Z,25.02
2022-11-16T11:50:44.569Z,25.60
2022-11-16T11:53:29.569Z,27.77
2022-11-16T11:55:58.285Z,26.92
2022-11-16T11:58:33.920Z,27.02
2022-11-16T12:01:25.491Z,27.80
2022-11-16T12:06:38.746Z,28.50
2022-11-16T12:09:20.816Z,27.52
2022-11-16T12:11:59.506Z,29.60
2022-11-16T12:14:51.305Z,28.65
2022-11-16T12:17:55.111Z,28.58
2022-11-16T12:20:45.947Z,28.25
2022-11-16T12:23:37.686Z,29.23
2022-11-16T12:28:58.516Z,29.23
2022-11-16T12:31:33.731Z,30.48
2022-11-16T12:34:21.909Z,29.70
2022-11-16T12:37:20.793Z,30.27
2022-11-16T12:40:05.618Z,30.35
2022-11-16T12:42:42.487Z,29.70
2022-11-16T12:45:36.918Z,31.15
2022-11-16T12:48:22.361Z,30.88
2022-11-16T12:51:27.540Z,29.83
2022-11-16T12:54:09.070Z,31.20
2022-11-16T12:56:54.863Z,31.30
2022-11-16T12:59:49.204Z,30.45
2022-11-16T13:02:53.709Z,30.40
2022-11-16T13:05:28.863Z,29.88
2022-11-16T13:08:22.243Z,30.50
2022-11-16T13:10:53.363Z,31.48
2022-11-16T13:13:41.446Z,30.52
2022-11-16T13:16:09.543Z,29.45
2022-11-16T13:18:41.401Z,30.38
2022-11-16T13:21:18.998Z,28.17
2022-11-16T13:24:41.418Z,29.67
2022-11-16T13:27:29.370Z,30.15
2022-11-16T13:30:22.108Z,29.48
2022-11-16T13:33:03.586Z,27.35
2022-11-16T13:35:30.284Z,26.58
2022-11-16T13:37:56.715Z,27.42
2022-11-16T13:40:27.261Z,27.52
2022-11-16T13:43:04.830Z,25.83
2022-11-16T13:45:55.429Z,26.02
2022-11-16T13:48:35.514Z,26.50
2022-11-16T13:51:05.719Z,26.77
2022-11-16T13:56:51.296Z,25.50
2022-11-16T13:59:25.237Z,26.08
2022-11-16T14:02:22.404Z,26.67
2022-11-16T14:05:00.414Z,24.58
2022-11-16T14:07:31.546Z,26.23
2022-11-16T14:09:58.517Z,24.48
2022-11-16T14:12:53.963Z,26.70
2022-11-16T14:15:25.147Z,24.38
2022-11-16T14:17:54.445Z,23.85
2022-11-16T14:20:41.177Z,22.85
2022-11-16T14:23:22.510Z,25.60
2022-11-16T14:26:03.533Z,23.25
2022-11-16T14:28:53.761Z,18.13
2022-11-16T14:31:31.691Z,24.83
2022-11-16T14:34:00.423Z,23.10
2022-11-16T14:36:42.853Z,23.25
2022-11-16T14:39:24.113Z,23.38
2022-11-16T14:41:51.517Z,24.77
2022-11-16T14:44:21.769Z,22.25
2022-11-16T14:46:48.469Z,22.77
2022-11-16T14:49:17.839Z,23.02
2022-11-16T14:51:48.796Z,23.08
2022-11-16T14:54:29.563Z,22.77
2022-11-16T14:57:04.378Z,24.20
2022-11-16T14:59:31.610Z,26.15
2022-11-16T15:02:03.169Z,23.55
2022-11-16T15:07:01.627Z,24.20
2022-11-16T15:09:37.873Z,23.13
2022-11-16T15:12:25.093Z,23.95
2022-11-16T15:14:54.498Z,24.50
2022-11-16T15:17:27.210Z,25.30
2022-11-16T15:19:56.840Z,26.83
2022-11-16T15:22:25.205Z,24.58
2022-11-16T15:25:01.741Z,27.52
2022-11-16T15:27:36.639Z,26.40
2022-11-16T15:30:25.078Z,26.63
2022-11-16T15:32:52.884Z,24.98
2022-11-16T15:35:24.759Z,26.85
2022-11-16T15:38:15.832Z,26.15
2022-11-16T15:41:04.041Z,25.92
2022-11-16T15:43:45.355Z,25.75
2022-11-16T15:46:23.339Z,25.05
2022-11-16T15:48:50.423Z,25.35
2022-11-16T15:51:23.079Z,24.55
2022-11-16T15:53:54.466Z,25.40
2022-11-16T15:56:26.946Z,24.38
2022-11-16T15:58:55.814Z,24.77
2022-11-16T16:01:23.466Z,23.20
2022-11-16T16:04:01.485Z,23.27
2022-11-16T16:06:52.104Z,25.15
2022-11-16T16:09:30.655Z,25.27
2022-11-16T16:12:19.729Z,25.80
2022-11-16T16:14:48.517Z,25.92
2022-11-16T16:17:24.222Z,24.70
2022-11-16T16:20:00.846Z,23.42
2022-11-16T16:22:37.133Z,22.40
2022-11-16T16:25:06.307Z,23.58
2022-11-16T16:27:39.918Z,21.73
2022-11-16T16:30:07.464Z,20.38
2022-11-16T16:32:37.011Z,21.48
2022-11-16T16:35:07.635Z,19.80
2022-11-16T16:37:36.019Z,15.90
2022-11-16T16:40:03.503Z,17.92
2022-11-16T16:42:29.889Z,18.38
2022-11-16T16:44:59.493Z,18.52
2022-11-16T16:47:25.925Z,19.08
2022-11-16T16:49:52.291Z,18.63
2022-11-16T16:52:18.896Z,18.77
2022-11-16T16:54:45.319Z,19.77
2022-11-16T16:57:16.457Z,20.02
2022-11-16T16:59:48.285Z,18.85
2022-11-16T17:02:16.289Z,19.80
2022-11-16T17:04:43.985Z,19.98
2022-11-16T17:07:10.455Z,19.35
2022-11-16T17:09:36.849Z,18.88
2022-11-16T17:12:03.768Z,18.08
2022-11-16T17:14:30.886Z,17.92
2022-11-16T17:16:57.319Z,17.65
2022-11-16T17:19:24.007Z,17.45
2022-11-16T17:21:53.427Z,17.77
2022-11-16T17:24:20.040Z,16.23
2022-11-16T17:26:49.476Z,15.90
2022-11-16T17:29:16.399Z,16.70
2022-11-16T17:31:44.704Z,15.50
2022-11-16T17:34:13.702Z,15.90
2022-11-16T17:36:40.774Z,16.42
2022-11-16T17:39:07.220Z,15.38
2022-11-16T17:41:33.686Z,14.95
2022-11-16T17:44:00.308Z,15.38
2022-11-16T17:46:26.753Z,15.43
2022-11-16T17:48:53.163Z,16.02
2022-11-16T17:51:21.450Z,16.15
2022-11-16T17:53:49.702Z,16.10
2022-11-16T17:56:18.810Z,15.93
2022-11-16T17:58:45.418Z,16.27
2022-11-16T18:01:13.118Z,15.77
2022-11-16T18:03:40.047Z,15.25
2022-11-16T18:06:09.185Z,15.13
2022-11-16T18:08:36.787Z,15.20
2022-11-16T18:11:15.446Z,14.77
2022-11-16T18:13:43.288Z,14.35
2022-11-16T18:16:18.382Z,13.38
2022-11-16T18:18:46.691Z,12.63
2022-11-16T18:21:20.413Z,14.43
2022-11-16T18:23:48.013Z,12.43
2022-11-16T18:26:20.526Z,14.43
2022-11-16T18:28:51.576Z,14.57
2022-11-16T18:31:22.666Z,13.98
2022-11-16T18:33:49.631Z,13.35
2022-11-16T18:36:17.217Z,13.32
2022-11-16T18:38:43.728Z,13.77
2022-11-16T18:41:12.896Z,12.27
2022-11-16T18:44:02.542Z,13.02
2022-11-16T18:46:32.842Z,13.75
2022-11-16T18:48:59.997Z,12.57
2022-11-16T18:51:27.801Z,13.05
2022-11-16T18:53:55.206Z,12.13
2022-11-16T18:56:22.108Z,11.05
2022-11-16T18:58:51.431Z,12.60
2022-11-16T19:01:21.744Z,11.95
2022-11-16T19:03:48.374Z,12.25
2022-11-16T19:06:15.543Z,12.00
2022-11-16T19:08:42.457Z,10.90
2022-11-16T19:11:14.396Z,12.00
2022-11-16T19:13:42.705Z,11.50
2022-11-16T19:16:10.847Z,11.43
2022-11-16T19:18:37.500Z,11.50
2022-11-16T19:21:11.521Z,11.65
2022-11-16T19:23:42.919Z,11.50
2022-11-16T19:26:12.269Z,11.13
2022-11-16T19:28:43.536Z,10.57
2022-11-16T19:31:12.194Z,10.13
2022-11-16T19:33:39.486Z,11.43
2022-11-16T19:36:13.760Z,11.50
2022-11-16T19:38:40.428Z,11.10
2022-11-16T19:41:08.157Z,10.90
2022-11-16T19:43:35.040Z,11.65
2022-11-16T19:46:04.003Z,10.63
2022-11-16T19:48:32.289Z,9.98
2022-11-16T19:51:19.879Z,9.82
2022-11-16T19:53:46.883Z,9.45
2022-11-16T19:56:15.628Z,9.27
2022-11-16T19:58:43.054Z,9.55
2022-11-16T20:01:20.990Z,8.77
2022-11-16T20:03:48.949Z,9.40
2022-11-16T20:06:21.472Z,9.68
2022-11-16T20:08:50.699Z,9.57
2022-11-16T20:11:20.617Z,9.68
2022-11-16T20:13:52.055Z,10.05
2022-11-16T20:16:20.453Z,9.45
2022-11-16T20:18:47.573Z,9.48
2022-11-16T20:21:21.299Z,9.23
2022-11-16T20:23:47.883Z,9.70
2022-11-16T20:26:15.195Z,8.77
2022-11-16T20:28:42.821Z,9.23
2022-11-16T20:31:14.432Z,9.88
2022-11-16T20:36:11.825Z,10.18
2022-11-16T20:38:39.089Z,9.73
2022-11-16T20:41:09.416Z,8.63
2022-11-16T20:43:36.322Z,9.32
2022-11-16T20:46:02.930Z,8.68
2022-11-16T20:48:29.404Z,8.35
2022-11-16T20:50:55.850Z,8.52
2022-11-16T20:53:22.570Z,9.10
2022-11-16T20:55:49.858Z,9.02
2022-11-16T20:58:22.475Z,9.20
2022-11-16T21:00:50.148Z,9.80
2022-11-16T21:03:17.112Z,9.10
2022-11-16T21:05:45.059Z,10.07
2022-11-16T21:08:12.263Z,10.85
2022-11-16T21:10:39.751Z,9.93
2022-11-16T21:13:25.951Z,10.27
2022-11-16T21:16:01.330Z,10.07
2022-11-16T21:18:30.906Z,10.50
2022-11-16T21:20:59.766Z,9.70
2022-11-16T21:23:28.295Z,10.43
2022-11-16T21:25:55.088Z,10.05
2022-11-16T21:28:25.422Z,10.77
2022-11-16T21:31:03.634Z,9.57
2022-11-16T21:33:30.235Z,10.23
2022-11-16T21:35:56.857Z,9.55
2022-11-16T21:38:27.868Z,10.38
2022-11-16T21:40:54.266Z,7.93
2022-11-16T21:43:20.668Z,10.30
2022-11-16T21:45:48.252Z,9.60
2022-11-16T21:48:14.790Z,10.70
2022-11-16T21:50:42.483Z,10.43
2022-11-16T21:53:09.585Z,10.68
2022-11-16T21:55:36.143Z,9.85
2022-11-16T21:58:03.592Z,10.73
2022-11-16T22:00:30.182Z,10.65
2022-11-16T22:02:56.558Z,11.40
2022-11-16T22:05:41.484Z,10.43
2022-11-16T22:08:11.470Z,11.05
2022-11-16T22:10:38.091Z,10.57
2022-11-16T22:13:04.624Z,9.95
2022-11-16T22:15:31.090Z,10.82
2022-11-16T22:17:57.468Z,10.93
2022-11-16T22:20:23.876Z,10.65
2022-11-16T22:22:50.293Z,10.32
2022-11-16T22:25:17.068Z,9.93
2022-11-16T22:28:13.528Z,10.20
2022-11-16T22:30:33.263Z,9.65
2022-11-16T22:32:59.705Z,9.48
2022-11-16T22:35:26.236Z,9.65
2022-11-16T22:37:52.844Z,9.38
2022-11-16T22:40:19.268Z,9.05
2022-11-16T22:42:46.013Z,10.02
2022-11-16T22:45:12.415Z,9.80
2022-11-16T22:47:38.851Z,9.80
2022-11-16T22:50:05.700Z,9.75
2022-11-16T22:52:32.113Z,10.00
2022-11-16T22:54:58.511Z,10.23
2022-11-16T22:57:24.919Z,9.07
2022-11-16T22:59:51.349Z,9.93
2022-11-16T23:02:17.797Z,9.40
2022-11-16T23:04:44.206Z,10.38
2022-11-16T23:07:10.656Z,10.25
2022-11-16T23:09:37.086Z,9.20
2022-11-16T23:12:22.151Z,11.45
2022-11-16T23:15:07.004Z,10.35
2022-11-16T23:17:33.393Z,11.02
2022-11-16T23:20:18.276Z,11.00
2022-11-16T23:23:03.381Z,10.90
2022-11-16T23:25:48.519Z,11.40
2022-11-16T23:28:16.579Z,11.18
2022-11-16T23:30:43.037Z,11.50
2022-11-16T23:33:10.160Z,11.32
2022-11-16T23:35:36.813Z,12.13
2022-11-16T23:38:05.828Z,12.68
2022-11-16T23:40:34.667Z,13.05
2022-11-16T23:43:19.791Z,12.27
2022-11-16T23:45:46.260Z,12.85
2022-11-16T23:48:15.428Z,11.10
2022-11-16T23:50:42.443Z,12.40
2022-11-16T23:53:10.064Z,11.82
2022-11-16T23:55:41.011Z,12.43
2022-11-16T23:58:12.471Z,12.30
